createdAt,value
2022-12-09T00:00:14.388Z,8.20
2022-12-09T00:02:42.224Z,8.20
2022-12-09T00:05:10.057Z,8.10
2022-12-09T00:07:37.522Z,8.20
2022-12-09T00:10:06.169Z,8.10
2022-12-09T00:12:33.784Z,8.10
2022-12-09T00:15:01.427Z,8.10
2022-12-09T00:17:30.586Z,8.10
2022-12-09T00:19:57.945Z,8.10
2022-12-09T00:22:27.305Z,8.20
2022-12-09T00:24:55.922Z,8.10
2022-12-09T00:27:23.630Z,8.10
2022-12-09T00:29:51.360Z,8.10
2022-12-09T00:32:18.668Z,8.10
2022-12-09T00:34:48.069Z,8.10
2022-12-09T00:37:15.843Z,8.10
2022-12-09T00:39:43.170Z,8.10
2022-12-09T00:42:11.384Z,8.10
2022-12-09T00:44:42.257Z,8.10
2022-12-09T00:47:10.088Z,8.40
2022-12-09T00:49:37.744Z,8.00
2022-12-09T00:52:05.084Z,8.00
2022-12-09T00:54:32.589Z,7.90
2022-12-09T00:57:00.074Z,8.00
2022-12-09T00:59:28.038Z,8.00
2022-12-09T01:01:55.595Z,8.00
2022-12-09T01:04:24.910Z,8.00
2022-12-09T01:06:52.577Z,8.00
2022-12-09T01:09:20.207Z,8.00
2022-12-09T01:11:47.580Z,8.00
2022-12-09T01:14:15.098Z,8.00
2022-12-09T01:16:42.454Z,8.00
2022-12-09T01:19:13.642Z,8.00
2022-12-09T01:21:41.102Z,8.00
2022-12-09T01:24:11.836Z,8.00
2022-12-09T01:26:39.269Z,8.00
2022-12-09T01:29:07.377Z,8.00
2022-12-09T01:31:35.880Z,8.00
2022-12-09T01:34:03.902Z,8.00
2022-12-09T01:36:31.701Z,8.00
2022-12-09T01:38:59.993Z,8.00
2022-12-09T01:41:28.069Z,8.00
2022-12-09T01:44:32.574Z,8.00
2022-12-09T01:47:02.396Z,8.00
2022-12-09T01:49:39.172Z,8.00
2022-12-09T01:52:15.781Z,8.00
2022-12-09T01:54:46.915Z,7.90
2022-12-09T01:57:15.218Z,7.90
2022-12-09T01:59:45.391Z,7.90
2022-12-09T02:02:17.713Z,7.90
2022-12-09T02:04:49.045Z,7.90
2022-12-09T02:07:18.665Z,7.90
2022-12-09T02:09:46.414Z,7.90
2022-12-09T02:12:36.460Z,7.90
2022-12-09T02:15:10.645Z,7.90
2022-12-09T02:17:59.740Z,7.90
2022-12-09T02:20:41.179Z,7.90
2022-12-09T02:23:47.153Z,7.90
2022-12-09T02:26:40.777Z,7.90
2022-12-09T02:29:14.894Z,7.90
2022-12-09T02:32:01.973Z,7.90
2022-12-09T02:34:34.157Z,7.90
2022-12-09T02:37:12.031Z,7.90
2022-12-09T02:39:54.328Z,7.90
2022-12-09T02:42:27.778Z,7.90
2022-12-09T02:44:58.391Z,7.90
2022-12-09T02:47:29.735Z,7.80
2022-12-09T02:50:07.960Z,7.80
2022-12-09T02:52:38.269Z,7.80
2022-12-09T02:55:09.043Z,7.80
2022-12-09T02:57:38.472Z,7.80
2022-12-09T03:00:07.565Z,7.80
2022-12-09T03:02:38.741Z,7.70
2022-12-09T03:05:38.287Z,7.80
2022-12-09T03:08:27.661Z,7.70
2022-12-09T03:11:04.451Z,7.70
2022-12-09T03:14:00.169Z,7.70
2022-12-09T03:16:41.990Z,7.70
2022-12-09T03:19:34.418Z,7.70
2022-12-09T03:22:06.528Z,7.70
2022-12-09T03:24:47.403Z,7.70
2022-12-09T03:27:21.483Z,7.70
2022-12-09T03:29:50.985Z,7.70
2022-12-09T03:32:23.999Z,7.70
2022-12-09T03:34:57.931Z,7.70
2022-12-09T03:37:27.046Z,7.70
2022-12-09T03:39:55.388Z,7.60
2022-12-09T03:42:28.380Z,7.60
2022-12-09T03:45:02.793Z,7.70
2022-12-09T03:47:33.424Z,7.70
2022-12-09T03:50:00.950Z,7.70
2022-12-09T03:52:35.398Z,7.70
2022-12-09T03:55:13.904Z,7.60
2022-12-09T03:57:43.474Z,7.60
2022-12-09T04:00:11.371Z,7.60
2022-12-09T04:02:43.134Z,7.60
2022-12-09T04:05:11.067Z,7.60
2022-12-09T04:07:38.711Z,7.60
2022-12-09T04:10:07.433Z,7.50
2022-12-09T04:12:35.200Z,7.50
2022-12-09T04:15:02.652Z,7.50
2022-12-09T04:17:30.104Z,7.50
2022-12-09T04:19:58.071Z,7.50
2022-12-09T04:22:25.688Z,7.50
2022-12-09T04:24:53.625Z,7.50
2022-12-09T04:27:21.152Z,7.50
2022-12-09T04:29:48.775Z,7.40
2022-12-09T04:32:16.618Z,7.40
2022-12-09T04:34:44.185Z,7.40
2022-12-09T04:37:13.034Z,7.40
2022-12-09T04:39:41.935Z,7.40
2022-12-09T04:42:09.452Z,7.40
2022-12-09T04:44:37.273Z,7.40
2022-12-09T04:47:05.251Z,7.40
2022-12-09T04:49:32.870Z,7.40
2022-12-09T04:52:00.313Z,7.40
2022-12-09T04:54:27.641Z,7.40
2022-12-09T04:56:55.167Z,7.40
2022-12-09T04:59:22.509Z,7.40
2022-12-09T05:01:50.251Z,7.40
2022-12-09T05:04:18.069Z,7.30
2022-12-09T05:06:45.604Z,7.30
2022-12-09T05:09:14.294Z,7.30
2022-12-09T05:11:41.736Z,7.30
2022-12-09T05:14:09.571Z,7.30
2022-12-09T05:16:37.424Z,7.30
2022-12-09T05:19:05.520Z,7.30
2022-12-09T05:21:33.104Z,7.40
2022-12-09T05:24:02.462Z,7.40
2022-12-09T05:26:30.105Z,7.40
2022-12-09T05:28:57.921Z,7.60
2022-12-09T05:31:25.465Z,7.40
2022-12-09T05:33:53.330Z,7.50
2022-12-09T05:36:24.536Z,7.50
2022-12-09T05:38:53.312Z,7.40
2022-12-09T05:41:22.813Z,7.40
2022-12-09T05:43:51.145Z,7.40
2022-12-09T05:46:21.838Z,7.40
2022-12-09T05:48:50.743Z,7.40
2022-12-09T05:51:23.316Z,7.40
2022-12-09T05:53:51.201Z,7.40
2022-12-09T05:56:19.879Z,7.40
2022-12-09T05:58:48.044Z,7.40
2022-12-09T06:01:16.742Z,7.40
2022-12-09T06:03:47.165Z,7.50
2022-12-09T06:06:18.092Z,7.40
2022-12-09T06:08:46.776Z,7.40
2022-12-09T06:11:21.930Z,7.40
2022-12-09T06:13:50.656Z,7.30
2022-12-09T06:16:20.919Z,7.30
2022-12-09T06:18:49.679Z,7.20
2022-12-09T06:21:19.517Z,7.20
2022-12-09T06:23:48.308Z,7.20
2022-12-09T06:26:22.258Z,7.20
2022-12-09T06:28:50.247Z,7.20
2022-12-09T06:31:18.886Z,7.20
2022-12-09T06:33:54.707Z,7.30
2022-12-09T06:36:25.052Z,7.20
2022-12-09T06:38:52.810Z,7.30
2022-12-09T06:41:20.665Z,7.30
2022-12-09T06:43:48.834Z,7.30
2022-12-09T06:46:19.540Z,7.30
2022-12-09T06:48:48.078Z,7.30
2022-12-09T06:51:17.675Z,7.30
2022-12-09T06:53:46.810Z,7.30
2022-12-09T06:56:15.107Z,7.20
2022-12-09T06:58:44.591Z,7.30
2022-12-09T07:01:16.510Z,7.30
2022-12-09T07:03:47.849Z,7.20
2022-12-09T07:06:23.632Z,7.20
2022-12-09T07:08:51.810Z,7.20
2022-12-09T07:11:19.633Z,7.20
2022-12-09T07:13:48.564Z,7.30
2022-12-09T07:16:16.396Z,7.20
2022-12-09T07:18:44.713Z,7.20
2022-12-09T07:21:16.302Z,7.50
2022-12-09T07:23:49.215Z,7.50
2022-12-09T07:26:18.584Z,7.30
2022-12-09T07:28:48.164Z,7.30
2022-12-09T07:31:45.643Z,7.30
2022-12-09T07:34:13.853Z,7.30
2022-12-09T07:36:42.574Z,7.30
2022-12-09T07:39:14.726Z,7.50
2022-12-09T07:41:43.383Z,7.20
2022-12-09T07:44:12.125Z,7.50
2022-12-09T07:46:40.919Z,7.50
2022-12-09T07:49:10.115Z,7.20
2022-12-09T07:51:38.259Z,7.20
2022-12-09T07:54:06.178Z,7.20
2022-12-09T07:56:34.522Z,7.20
2022-12-09T07:59:05.799Z,7.50
2022-12-09T08:01:33.839Z,7.20
2022-12-09T08:04:04.548Z,7.20
2022-12-09T08:06:34.065Z,7.10
2022-12-09T08:09:04.417Z,7.10
2022-12-09T08:11:33.548Z,7.20
2022-12-09T08:14:10.945Z,7.10
2022-12-09T08:16:42.026Z,7.10
2022-12-09T08:19:10.775Z,7.10
2022-12-09T08:21:39.870Z,7.30
2022-12-09T08:24:08.071Z,7.10
2022-12-09T08:26:39.500Z,7.10
2022-12-09T08:29:09.926Z,7.00
2022-12-09T08:31:41.613Z,7.00
2022-12-09T08:34:10.303Z,7.20
2022-12-09T08:36:38.719Z,7.00
2022-12-09T08:39:07.394Z,7.00
2022-12-09T08:41:40.213Z,7.20
2022-12-09T08:44:09.698Z,7.00
2022-12-09T08:46:39.959Z,7.00
2022-12-09T08:49:09.051Z,7.20
2022-12-09T08:51:38.076Z,7.00
2022-12-09T08:54:06.865Z,6.90
2022-12-09T08:56:35.496Z,6.90
2022-12-09T08:59:06.799Z,6.90
2022-12-09T09:01:36.051Z,7.10
2022-12-09T09:04:08.423Z,6.90
2022-12-09T09:06:42.453Z,6.90
2022-12-09T09:09:12.448Z,7.20
2022-12-09T09:11:41.325Z,7.00
2022-12-09T09:14:10.900Z,7.30
2022-12-09T09:16:41.859Z,7.10
2022-12-09T09:19:15.740Z,7.20
2022-12-09T09:21:43.773Z,7.50
2022-12-09T09:24:14.219Z,7.40
2022-12-09T09:26:43.568Z,7.50
2022-12-09T09:29:12.605Z,7.80
2022-12-09T09:31:41.375Z,7.60
2022-12-09T09:34:10.332Z,7.90
2022-12-09T09:36:38.441Z,7.80
2022-12-09T09:39:06.117Z,7.60
2022-12-09T09:41:45.695Z,7.60
2022-12-09T09:44:26.441Z,7.60
2022-12-09T09:46:56.376Z,7.50
2022-12-09T09:49:42.266Z,7.50
2022-12-09T09:52:19.778Z,7.70
2022-12-09T09:54:47.531Z,7.40
2022-12-09T09:57:18.911Z,7.40
2022-12-09T10:00:07.002Z,7.60
2022-12-09T10:02:47.045Z,7.50
2022-12-09T10:05:28.246Z,7.30
2022-12-09T10:08:06.327Z,7.30
2022-12-09T10:10:43.650Z,7.20
2022-12-09T10:13:37.543Z,7.30
2022-12-09T10:16:55.525Z,7.30
2022-12-09T10:19:35.324Z,7.30
2022-12-09T10:22:14.046Z,7.30
2022-12-09T10:24:51.758Z,7.30
2022-12-09T10:27:38.968Z,7.30
2022-12-09T10:30:12.781Z,7.30
2022-12-09T10:32:41.365Z,7.30
2022-12-09T10:35:32.946Z,7.60
2022-12-09T10:38:15.553Z,7.40
2022-12-09T10:40:46.933Z,7.60
2022-12-09T10:43:40.189Z,7.30
2022-12-09T10:46:18.325Z,7.30
2022-12-09T10:48:47.441Z,7.30
2022-12-09T10:51:20.682Z,7.30
2022-12-09T10:54:00.996Z,7.30
2022-12-09T10:56:34.949Z,7.40
2022-12-09T10:59:22.508Z,7.40
2022-12-09T11:01:55.002Z,7.40
2022-12-09T11:04:32.705Z,7.70
2022-12-09T11:07:13.162Z,7.50
2022-12-09T11:09:50.113Z,7.50
2022-12-09T11:12:27.312Z,7.60
2022-12-09T11:14:59.137Z,7.50
2022-12-09T11:17:32.372Z,7.70
2022-12-09T11:20:07.354Z,7.70
2022-12-09T11:22:42.307Z,7.50
2022-12-09T11:25:13.486Z,7.50
2022-12-09T11:28:22.331Z,7.40
2022-12-09T11:31:27.595Z,7.40
2022-12-09T11:33:58.367Z,7.40
2022-12-09T11:36:42.169Z,7.40
2022-12-09T11:39:20.166Z,7.40
2022-12-09T11:42:16.483Z,7.50
2022-12-09T11:44:56.981Z,7.50
2022-12-09T11:48:20.274Z,7.50
2022-12-09T11:50:33.128Z,7.40
2022-12-09T11:53:13.130Z,7.40
2022-12-09T11:55:47.220Z,7.60
2022-12-09T11:58:21.129Z,7.40
2022-12-09T12:00:58.248Z,7.30
2022-12-09T12:03:47.945Z,7.30
2022-12-09T12:06:26.315Z,7.30
2022-12-09T12:09:00.987Z,7.30
2022-12-09T12:11:34.671Z,7.30
2022-12-09T12:14:17.437Z,7.30
2022-12-09T12:17:23.018Z,7.30
2022-12-09T12:19:53.080Z,7.30
2022-12-09T12:22:59.406Z,7.20
2022-12-09T12:26:08.865Z,7.20
2022-12-09T12:29:07.342Z,7.20
2022-12-09T12:31:53.480Z,7.20
2022-12-09T12:34:45.749Z,7.30
2022-12-09T12:37:49.917Z,7.30
2022-12-09T12:40:32.724Z,7.30
2022-12-09T12:43:56.500Z,7.20
2022-12-09T12:47:08.095Z,7.30
2022-12-09T12:50:14.078Z,7.20
2022-12-09T12:53:09.589Z,7.30
2022-12-09T12:56:05.764Z,7.30
2022-12-09T12:58:54.441Z,7.30
2022-12-09T13:01:46.888Z,7.30
2022-12-09T13:04:26.478Z,7.30
2022-12-09T13:07:16.241Z,7.30
2022-12-09T13:09:49.708Z,7.30
2022-12-09T13:12:46.893Z,7.40
2022-12-09T13:15:19.617Z,7.40
2022-12-09T13:17:48.730Z,7.50
2022-12-09T13:20:31.389Z,7.80
2022-12-09T13:23:46.559Z,7.80
2022-12-09T13:26:42.313Z,7.60
2022-12-09T13:29:30.397Z,7.60
2022-12-09T13:32:12.655Z,7.30
2022-12-09T13:34:54.273Z,7.60
2022-12-09T13:37:55.020Z,7.60
2022-12-09T13:40:38.417Z,7.60
2022-12-09T13:43:20.584Z,7.60
2022-12-09T13:45:51.839Z,7.60
2022-12-09T13:48:19.205Z,7.90
2022-12-09T13:50:56.685Z,7.60
2022-12-09T13:53:29.945Z,7.80
2022-12-09T13:56:16.806Z,7.50
2022-12-09T13:59:02.208Z,7.50
2022-12-09T14:01:47.725Z,7.50
2022-12-09T14:04:21.301Z,7.60
2022-12-09T14:06:55.931Z,7.50
2022-12-09T14:09:50.533Z,7.50
2022-12-09T14:12:27.114Z,7.50
2022-12-09T14:14:55.320Z,7.50
2022-12-09T14:17:26.912Z,7.70
2022-12-09T14:20:02.349Z,7.40
2022-12-09T14:22:31.393Z,7.40
2022-12-09T14:25:20.131Z,7.50
2022-12-09T14:28:09.899Z,7.40
2022-12-09T14:30:51.076Z,7.30
2022-12-09T14:33:30.285Z,7.30
2022-12-09T14:36:04.945Z,7.30
2022-12-09T14:38:32.936Z,7.30
2022-12-09T14:41:29.511Z,7.50
2022-12-09T14:44:25.378Z,7.30
2022-12-09T14:47:22.880Z,7.30
2022-12-09T14:49:53.045Z,7.40
2022-12-09T14:52:29.434Z,7.40
2022-12-09T14:55:00.040Z,7.30
2022-12-09T14:57:37.460Z,7.60
2022-12-09T15:00:07.571Z,7.30
2022-12-09T15:02:38.375Z,7.30
2022-12-09T15:05:55.355Z,7.30
2022-12-09T15:08:33.945Z,7.50
2022-12-09T15:11:49.341Z,7.30
2022-12-09T15:14:31.305Z,7.20
2022-12-09T15:20:01.026Z,7.20
2022-12-09T15:25:49.536Z,7.00
2022-12-09T15:28:26.871Z,7.00
2022-12-09T15:31:03.841Z,6.90
2022-12-09T15:37:06.356Z,6.90
2022-12-09T15:42:42.419Z,6.80
2022-12-09T15:46:16.890Z,7.00
2022-12-09T15:49:23.198Z,6.40
2022-12-09T15:54:39.321Z,6.70
2022-12-09T15:57:33.818Z,6.60
2022-12-09T16:00:02.110Z,6.50
2022-12-09T16:06:41.600Z,6.10
2022-12-09T16:09:29.034Z,6.50
2022-12-09T16:12:29.230Z,6.20
2022-12-09T16:15:02.368Z,6.50
2022-12-09T16:17:37.517Z,6.20
2022-12-09T16:20:35.056Z,6.40
2022-12-09T16:23:39.173Z,6.30
2022-12-09T16:26:32.604Z,6.00
2022-12-09T16:29:03.754Z,6.00
2022-12-09T16:31:33.236Z,6.20
2022-12-09T16:37:38.327Z,6.00
2022-12-09T16:43:35.093Z,5.90
2022-12-09T16:46:28.475Z,5.80
2022-12-09T16:48:59.263Z,5.80
2022-12-09T16:51:30.854Z,5.70
2022-12-09T16:53:58.764Z,5.60
2022-12-09T16:56:29.108Z,5.60
2022-12-09T16:58:57.404Z,5.70
2022-12-09T17:01:33.785Z,5.60
2022-12-09T17:04:04.145Z,5.60
2022-12-09T17:06:32.264Z,5.70
2022-12-09T17:09:00.152Z,5.90
2022-12-09T17:11:27.795Z,5.90
2022-12-09T17:13:55.237Z,5.70
2022-12-09T17:16:25.645Z,5.80
2022-12-09T17:18:53.304Z,5.70
2022-12-09T17:21:20.676Z,5.80
2022-12-09T17:23:48.928Z,5.80
2022-12-09T17:26:18.389Z,6.00
2022-12-09T17:28:46.584Z,6.00
2022-12-09T17:31:16.970Z,5.70
2022-12-09T17:33:44.877Z,5.70
2022-12-09T17:36:13.792Z,5.70
2022-12-09T17:38:41.768Z,5.70
2022-12-09T17:41:13.266Z,5.70
2022-12-09T17:43:40.888Z,5.70
2022-12-09T17:46:13.580Z,6.00
2022-12-09T17:48:42.704Z,5.80
2022-12-09T17:51:14.840Z,5.70
2022-12-09T17:53:43.355Z,5.70
2022-12-09T17:56:13.972Z,5.70
2022-12-09T17:58:42.270Z,5.70
2022-12-09T18:01:14.083Z,5.70
2022-12-09T18:03:59.405Z,5.70
2022-12-09T18:06:33.947Z,5.80
2022-12-09T18:09:03.026Z,5.80
2022-12-09T18:11:30.413Z,5.70
2022-12-09T18:13:58.372Z,6.00
2022-12-09T18:16:25.769Z,5.70
2022-12-09T18:18:55.509Z,5.60
2022-12-09T18:21:24.077Z,5.80
2022-12-09T18:23:51.714Z,5.60
2022-12-09T18:26:19.978Z,5.60
2022-12-09T18:28:47.487Z,5.70
2022-12-09T18:31:17.088Z,5.70
2022-12-09T18:33:46.642Z,5.70
2022-12-09T18:36:22.170Z,5.70
2022-12-09T18:38:51.024Z,5.70
2022-12-09T18:41:24.200Z,5.70
2022-12-09T18:43:53.374Z,5.70
2022-12-09T18:46:36.881Z,5.70
2022-12-09T18:49:24.174Z,5.70
2022-12-09T18:51:59.966Z,5.70
2022-12-09T18:54:29.061Z,5.70
2022-12-09T18:56:57.838Z,5.60
2022-12-09T18:59:25.593Z,5.70
2022-12-09T19:01:53.825Z,5.70
2022-12-09T19:04:24.437Z,5.90
2022-12-09T19:06:54.405Z,5.70
2022-12-09T19:09:28.474Z,5.50
2022-12-09T19:11:56.809Z,5.60
2022-12-09T19:14:25.009Z,5.60
2022-12-09T19:16:53.514Z,5.90
2022-12-09T19:19:26.242Z,5.60
2022-12-09T19:21:54.370Z,5.60
2022-12-09T19:24:27.568Z,5.60
2022-12-09T19:26:59.001Z,5.60
2022-12-09T19:29:27.972Z,5.60
2022-12-09T19:31:57.140Z,5.60
2022-12-09T19:34:26.993Z,5.50
2022-12-09T19:36:59.077Z,5.60
2022-12-09T19:39:30.116Z,5.60
2022-12-09T19:41:58.991Z,5.60
2022-12-09T19:47:15.332Z,5.80
2022-12-09T19:49:46.246Z,5.40
2022-12-09T19:52:13.922Z,5.50
2022-12-09T19:54:41.590Z,5.10
2022-12-09T19:57:09.319Z,5.40
2022-12-09T19:59:40.276Z,5.40
2022-12-09T20:02:11.856Z,5.40
2022-12-09T20:04:48.859Z,5.60
2022-12-09T20:07:17.036Z,5.40
2022-12-09T20:09:44.527Z,5.30
2022-12-09T20:12:11.907Z,5.30
2022-12-09T20:14:39.703Z,5.20
2022-12-09T20:17:07.941Z,5.20
2022-12-09T20:19:36.885Z,5.20
2022-12-09T20:22:04.956Z,5.10
2022-12-09T20:24:32.544Z,5.20
2022-12-09T20:27:00.876Z,5.20
2022-12-09T20:29:33.875Z,5.10
2022-12-09T20:32:05.636Z,5.10
2022-12-09T20:34:33.351Z,5.00
2022-12-09T20:37:01.179Z,5.00
2022-12-09T20:39:28.681Z,5.00
2022-12-09T20:41:56.114Z,5.00
2022-12-09T20:44:24.347Z,5.10
2022-12-09T20:46:53.223Z,5.30
2022-12-09T20:49:26.389Z,5.10
2022-12-09T20:51:54.858Z,5.20
2022-12-09T20:54:22.547Z,5.20
2022-12-09T20:56:50.339Z,5.50
2022-12-09T20:59:17.767Z,5.20
2022-12-09T21:01:47.142Z,5.30
2022-12-09T21:04:15.395Z,5.30
2022-12-09T21:06:43.369Z,5.60
2022-12-09T21:09:14.944Z,5.40
2022-12-09T21:11:42.525Z,5.70
2022-12-09T21:14:10.965Z,5.20
2022-12-09T21:16:42.005Z,5.50
2022-12-09T21:19:14.307Z,5.50
2022-12-09T21:21:46.861Z,5.50
2022-12-09T21:24:16.073Z,5.60
2022-12-09T21:26:44.332Z,5.60
2022-12-09T21:29:11.900Z,5.60
2022-12-09T21:31:41.343Z,5.70
2022-12-09T21:34:09.943Z,5.70
2022-12-09T21:36:39.908Z,5.70
2022-12-09T21:39:09.895Z,5.70
2022-12-09T21:41:37.392Z,5.70
2022-12-09T21:44:06.324Z,5.70
2022-12-09T21:46:35.984Z,5.70
2022-12-09T21:49:06.281Z,5.80
2022-12-09T21:51:34.646Z,5.80
2022-12-09T21:54:02.785Z,5.80
2022-12-09T21:56:32.619Z,5.80
2022-12-09T21:59:00.792Z,5.80
2022-12-09T22:01:31.926Z,5.90
2022-12-09T22:04:00.857Z,5.90
2022-12-09T22:06:29.427Z,5.90
2022-12-09T22:08:59.227Z,5.80
2022-12-09T22:11:30.081Z,5.80
2022-12-09T22:13:59.795Z,5.80
2022-12-09T22:16:30.462Z,5.80
2022-12-09T22:18:59.545Z,5.80
2022-12-09T22:21:29.759Z,5.90
2022-12-09T22:24:00.351Z,5.90
2022-12-09T22:26:28.439Z,5.90
2022-12-09T22:28:56.804Z,5.90
2022-12-09T22:31:27.291Z,5.90
2022-12-09T22:33:58.615Z,5.90
2022-12-09T22:36:26.280Z,5.90
2022-12-09T22:38:54.443Z,5.90
2022-12-09T22:41:24.060Z,5.90
2022-12-09T22:43:53.473Z,5.80
2022-12-09T22:46:28.133Z,5.90
2022-12-09T22:48:59.505Z,6.10
2022-12-09T22:51:29.458Z,5.90
2022-12-09T22:53:57.843Z,5.90
2022-12-09T22:56:26.175Z,5.90
2022-12-09T22:58:53.885Z,5.90
2022-12-09T23:01:27.520Z,6.00
2022-12-09T23:03:57.397Z,5.90
2022-12-09T23:06:26.435Z,5.90
2022-12-09T23:08:55.168Z,5.90
2022-12-09T23:11:25.264Z,5.90
2022-12-09T23:13:53.227Z,5.90
2022-12-09T23:16:23.971Z,5.80
2022-12-09T23:18:54.425Z,5.80
2022-12-09T23:21:31.028Z,5.80
2022-12-09T23:24:00.917Z,5.80
2022-12-09T23:26:31.847Z,5.80
2022-12-09T23:29:01.234Z,5.80
2022-12-09T23:31:31.657Z,5.70
2022-12-09T23:34:00.592Z,5.70
2022-12-09T23:36:31.848Z,5.70
2022-12-09T23:39:00.915Z,5.70
2022-12-09T23:41:28.984Z,5.70
2022-12-09T23:43:56.332Z,5.70
2022-12-09T23:46:26.245Z,5.70
2022-12-09T23:48:54.773Z,5.80
2022-12-09T23:51:26.919Z,5.70
2022-12-09T23:53:58.071Z,5.70
2022-12-09T23:56:28.234Z,5.70
2022-12-09T23:58:58.345Z,5.70
